Time;durP1;ratioP1;P1;durP2;ratioP2;P2;SDS_P1;SDS_P2;PMS_P1;PMS_P2;Temp;Humidity;BMP_temperature;BMP_pressure;BME280_temperature;BME280_humidity;BME280_pressure;Samples;Min_cycle;Max_cycle;Signal;HPM_P1;HPM_P2
2023/01/03 00:03:18;;;;;;;48.90;20.25;;;;;;;;;;10357384;28;20026;-78
2023/01/03 00:08:18;;;;;;;50.67;25.30;;;;;;;;;;10367025;28;20025;-78
2023/01/03 00:13:18;;;;;;;49.92;23.55;;;;;;;;;;10384117;28;20577;-78
2023/01/03 00:18:19;;;;;;;50.60;22.38;;;;;;;;;;10384286;28;20515;-79
2023/01/03 00:23:19;;;;;;;50.22;24.48;;;;;;;;;;10383797;28;20376;-78
2023/01/03 00:28:19;;;;;;;53.47;25.17;;;;;;;;;;10372105;28;20526;-79
2023/01/03 00:33:20;;;;;;;46.58;23.48;;;;;;;;;;10383050;28;20072;-75
2023/01/03 00:38:20;;;;;;;51.92;25.08;;;;;;;;;;10384321;28;20032;-79
2023/01/03 00:43:29;;;;;;;59.28;27.05;;;;;;;;;;10382348;28;20132;-81
2023/01/03 00:48:30;;;;;;;52.70;24.40;;;;;;;;;;10382673;28;20053;-74
2023/01/03 00:53:30;;;;;;;56.15;23.90;;;;;;;;;;10383366;28;20021;-75
2023/01/03 00:58:31;;;;;;;53.08;24.30;;;;;;;;;;10382831;28;20021;-78
2023/01/03 01:03:31;;;;;;;56.10;23.80;;;;;;;;;;10382597;28;20534;-80
2023/01/03 01:08:31;;;;;;;70.00;27.33;;;;;;;;;;10383281;28;20030;-77
2023/01/03 01:13:32;;;;;;;65.43;26.85;;;;;;;;;;10382547;28;20272;-78
2023/01/03 01:18:33;;;;;;;61.63;28.48;;;;;;;;;;10396511;28;20561;-73
2023/01/03 01:23:34;;;;;;;55.30;26.15;;;;;;;;;;10365035;28;20404;-76
2023/01/03 01:28:34;;;;;;;60.13;26.98;;;;;;;;;;10382956;28;20025;-75
2023/01/03 01:33:35;;;;;;;56.57;27.20;;;;;;;;;;10381966;28;20113;-75
2023/01/03 01:38:35;;;;;;;58.22;26.55;;;;;;;;;;10366340;28;20112;-79
2023/01/03 01:49:15;;;;;;;66.45;29.13;;;;;;;;;;10400660;28;20061;-77
2023/01/03 01:54:16;;;;;;;60.13;29.98;;;;;;;;;;10402464;28;20021;-75
2023/01/03 01:59:17;;;;;;;61.90;25.98;;;;;;;;;;10389300;28;20032;-73
2023/01/03 02:04:21;;;;;;;23.67;9.80;;;;;;;;;;10389282;28;20108;-73
2023/01/03 02:09:22;;;;;;;17.98;8.18;;;;;;;;;;10389542;28;20029;-79
2023/01/03 02:14:31;;;;;;;15.90;7.53;;;;;;;;;;10389099;28;20518;-78
2023/01/03 02:19:50;;;;;;;15.10;7.32;;;;;;;;;;10388368;28;20095;-77
2023/01/03 02:24:57;;;;;;;10.80;5.90;;;;;;;;;;10388211;28;20041;-79
2023/01/03 02:30:25;;;;;;;12.45;6.90;;;;;;;;;;10387704;28;20022;-73
2023/01/03 02:35:37;;;;;;;16.13;6.55;;;;;;;;;;10388386;28;20056;-75
2023/01/03 02:40:40;;;;;;;14.48;7.55;;;;;;;;;;10387598;28;20036;-74
2023/01/03 02:45:57;;;;;;;11.60;6.47;;;;;;;;;;10387381;28;20045;-77
2023/01/03 02:50:59;;;;;;;16.27;6.55;;;;;;;;;;10405092;28;20017;-76
2023/01/03 02:56:02;;;;;;;13.93;7.50;;;;;;;;;;10387936;28;20032;-77
2023/01/03 03:01:04;;;;;;;16.83;8.57;;;;;;;;;;10386884;28;20030;-77
2023/01/03 03:06:10;;;;;;;14.18;9.13;;;;;;;;;;10386447;28;20510;-77
2023/01/03 03:16:47;;;;;;;19.60;8.60;;;;;;;;;;10387207;28;20112;-77
2023/01/03 03:32:30;;;;;;;13.25;7.28;;;;;;;;;;10403657;28;20601;-72
2023/01/03 03:37:33;;;;;;;18.27;10.27;;;;;;;;;;10385086;28;20156;-75
2023/01/03 03:54:04;;;;;;;23.42;12.05;;;;;;;;;;10275289;28;20038;-79
2023/01/03 03:59:07;;;;;;;26.80;10.73;;;;;;;;;;10365666;28;20032;-75
2023/01/03 04:04:09;;;;;;;26.40;11.02;;;;;;;;;;10401941;28;20025;-77
2023/01/03 04:09:10;;;;;;;22.65;12.02;;;;;;;;;;10402065;28;20021;-77
2023/01/03 04:14:10;;;;;;;25.75;12.65;;;;;;;;;;10385144;28;20026;-77
2023/01/03 04:19:10;;;;;;;20.20;10.90;;;;;;;;;;10383388;28;20088;-78
2023/01/03 04:24:11;;;;;;;20.17;9.48;;;;;;;;;;10373328;28;20028;-76
2023/01/03 04:29:11;;;;;;;22.92;12.30;;;;;;;;;;10383169;28;20410;-77
2023/01/03 04:34:11;;;;;;;24.07;12.47;;;;;;;;;;10401349;28;20420;-73
2023/01/03 04:39:12;;;;;;;20.13;10.50;;;;;;;;;;10382934;28;20029;-75
2023/01/03 04:44:12;;;;;;;27.33;12.03;;;;;;;;;;10372566;28;20074;-77
2023/01/03 04:49:12;;;;;;;21.98;11.60;;;;;;;;;;10381088;28;20025;-77
2023/01/03 04:54:12;;;;;;;25.20;10.88;;;;;;;;;;10381259;28;20017;-78
2023/01/03 04:59:13;;;;;;;23.52;11.48;;;;;;;;;;10380758;28;20045;-79
2023/01/03 05:04:13;;;;;;;19.45;11.50;;;;;;;;;;10367855;28;20363;-78
2023/01/03 05:09:13;;;;;;;23.48;12.52;;;;;;;;;;10379279;28;20045;-74
2023/01/03 05:14:13;;;;;;;21.63;9.63;;;;;;;;;;10378611;28;20045;-79
2023/01/03 05:19:14;;;;;;;21.63;12.35;;;;;;;;;;10391222;28;20488;-80
2023/01/03 05:29:34;;;;;;;23.80;10.70;;;;;;;;;;10387366;28;20108;-77
2023/01/03 05:34:34;;;;;;;36.45;18.08;;;;;;;;;;10379979;28;20037;-72
2023/01/03 05:39:34;;;;;;;29.42;14.35;;;;;;;;;;10387747;28;20493;-77
2023/01/03 05:44:35;;;;;;;32.13;17.02;;;;;;;;;;10389465;28;20125;-77
2023/01/03 05:49:35;;;;;;;21.73;10.10;;;;;;;;;;10389320;28;20541;-78
2023/01/03 05:54:36;;;;;;;16.50;7.97;;;;;;;;;;10397900;28;20076;-79
2023/01/03 05:59:36;;;;;;;18.50;10.50;;;;;;;;;;10376399;28;20029;-76
2023/01/03 06:04:36;;;;;;;17.20;8.10;;;;;;;;;;10378211;28;20022;-73
2023/01/03 06:09:36;;;;;;;16.40;8.35;;;;;;;;;;10388287;28;20034;-78
2023/01/03 06:14:37;;;;;;;17.63;8.63;;;;;;;;;;10404233;28;20487;-78
2023/01/03 06:19:37;;;;;;;17.05;8.13;;;;;;;;;;10364947;28;20567;-77
2023/01/03 06:24:37;;;;;;;17.70;9.20;;;;;;;;;;10387950;28;20018;-76
2023/01/03 06:29:38;;;;;;;23.58;11.40;;;;;;;;;;10374080;28;20030;-76
2023/01/03 06:34:38;;;;;;;18.77;10.52;;;;;;;;;;10383335;28;20022;-76
2023/01/03 06:39:38;;;;;;;27.60;13.33;;;;;;;;;;10386979;28;20025;-73
2023/01/03 06:44:39;;;;;;;28.92;14.45;;;;;;;;;;10414002;28;20053;-72
2023/01/03 06:53:11;;;;;;;32.58;16.50;;;;;;;;;;10404940;28;20026;-79
2023/01/03 06:55:06;;;;;;;40.78;20.23;;;;;;;;;;10405057;28;20464;-77
2023/01/03 07:00:06;;;;;;;63.38;29.50;;;;;;;;;;10386569;28;20112;-77
2023/01/03 07:05:07;;;;;;;83.45;39.47;;;;;;;;;;10386997;28;20506;-77
2023/01/03 07:10:07;;;;;;;85.57;44.20;;;;;;;;;;10387319;28;20476;-73
2023/01/03 07:15:08;;;;;;;94.80;41.10;;;;;;;;;;10386032;28;20164;-77
2023/01/03 07:20:08;;;;;;;97.82;45.17;;;;;;;;;;10385720;28;20033;-79
2023/01/03 07:25:09;;;;;;;104.13;45.93;;;;;;;;;;10386084;28;20056;-79
2023/01/03 07:30:09;;;;;;;96.37;45.73;;;;;;;;;;10385575;28;20383;-73
2023/01/03 07:35:10;;;;;;;102.45;50.10;;;;;;;;;;10385331;28;20025;-72
2023/01/03 07:40:10;;;;;;;94.88;45.97;;;;;;;;;;10386027;28;20022;-74
2023/01/03 07:45:10;;;;;;;106.72;47.40;;;;;;;;;;10384604;28;20126;-77
2023/01/03 07:50:11;;;;;;;115.70;52.22;;;;;;;;;;10385127;28;20607;-77
2023/01/03 07:55:11;;;;;;;108.22;53.70;;;;;;;;;;10402650;28;20617;-76
2023/01/03 08:00:12;;;;;;;108.05;47.03;;;;;;;;;;10384739;28;20129;-78
2023/01/03 08:05:12;;;;;;;82.43;38.67;;;;;;;;;;10401624;28;20021;-73
2023/01/03 08:15:32;;;;;;;48.25;20.98;;;;;;;;;;10390478;28;20496;-77
2023/01/03 08:20:32;;;;;;;43.13;21.35;;;;;;;;;;10383027;28;20120;-76
2023/01/03 08:25:32;;;;;;;37.65;18.63;;;;;;;;;;10382975;28;20018;-79
2023/01/03 08:30:35;;;;;;;45.03;19.27;;;;;;;;;;10383602;28;20078;-77
2023/01/03 08:35:36;;;;;;;41.95;20.88;;;;;;;;;;10382999;28;20032;-76
2023/01/03 08:40:38;;;;;;;45.53;20.42;;;;;;;;;;10382938;28;20025;-78
2023/01/03 08:45:38;;;;;;;42.63;20.10;;;;;;;;;;10384299;28;20419;-76
2023/01/03 08:50:39;;;;;;;40.08;20.98;;;;;;;;;;10382789;28;20072;-74
2023/01/03 08:55:40;;;;;;;72.97;32.22;;;;;;;;;;10383287;28;20032;-74
2023/01/03 09:00:40;;;;;;;63.50;29.27;;;;;;;;;;10400414;28;20026;-78
2023/01/03 09:05:40;;;;;;;71.05;30.33;;;;;;;;;;10382137;28;20017;-80
2023/01/03 09:10:40;;;;;;;64.03;29.23;;;;;;;;;;10368976;28;20025;-74
2023/01/03 09:15:41;;;;;;;78.20;36.25;;;;;;;;;;10358237;28;20517;-78
2023/01/03 09:20:41;;;;;;;89.87;43.70;;;;;;;;;;10371751;28;20617;-78
2023/01/03 09:25:41;;;;;;;82.70;40.25;;;;;;;;;;10356444;28;20029;-79
2023/01/03 09:30:41;;;;;;;89.07;39.13;;;;;;;;;;10382048;28;20352;-74
2023/01/03 09:35:42;;;;;;;80.15;37.20;;;;;;;;;;10382434;28;20092;-78
2023/01/03 09:40:44;;;;;;;82.38;40.53;;;;;;;;;;10381444;28;20052;-73
2023/01/03 09:45:48;;;;;;;92.47;44.95;;;;;;;;;;10381446;28;20053;-73
2023/01/03 09:50:48;;;;;;;84.43;41.10;;;;;;;;;;10381755;28;20029;-72
2023/01/03 10:06:40;;;;;;;72.88;38.92;;;;;;;;;;10399080;28;20025;-78
2023/01/03 10:11:59;;;;;;;80.70;34.40;;;;;;;;;;10381489;28;20021;-71
2023/01/03 10:16:59;;;;;;;66.85;32.40;;;;;;;;;;10385308;28;20033;-74
2023/01/03 10:22:22;;;;;;;70.50;32.72;;;;;;;;;;10388266;28;20018;-78
2023/01/03 10:27:25;;;;;;;60.50;30.98;;;;;;;;;;10392551;28;20211;-78
2023/01/03 10:32:25;;;;;;;58.78;31.67;;;;;;;;;;10388257;28;20017;-78
2023/01/03 10:37:26;;;;;;;64.30;33.90;;;;;;;;;;10387981;28;20576;-76
2023/01/03 10:42:29;;;;;;;58.80;31.10;;;;;;;;;;10387840;28;20025;-76
2023/01/03 10:47:29;;;;;;;53.85;27.83;;;;;;;;;;10386778;28;20042;-74
2023/01/03 10:52:37;;;;;;;60.33;28.83;;;;;;;;;;10386869;28;20025;-77
2023/01/03 10:57:39;;;;;;;48.25;26.48;;;;;;;;;;10386648;28;20479;-76
2023/01/03 11:02:46;;;;;;;56.53;28.77;;;;;;;;;;10385532;28;20487;-77
2023/01/03 11:08:00;;;;;;;58.93;32.63;;;;;;;;;;10386926;28;20025;-78
2023/01/03 11:13:00;;;;;;;68.28;36.72;;;;;;;;;;10404045;28;20022;-73
2023/01/03 11:18:02;;;;;;;69.93;35.08;;;;;;;;;;10403863;28;20025;-74
2023/01/03 11:23:07;;;;;;;74.03;36.83;;;;;;;;;;10386008;28;20112;-75
2023/01/03 11:28:10;;;;;;;69.65;36.08;;;;;;;;;;10385299;28;20030;-79
2023/01/03 11:33:14;;;;;;;72.75;34.35;;;;;;;;;;10385248;28;20024;-71
2023/01/03 11:38:23;;;;;;;67.30;34.63;;;;;;;;;;10358788;28;20409;-78
2023/01/03 11:43:42;;;;;;;70.20;33.92;;;;;;;;;;10351513;28;20113;-74
2023/01/03 11:49:00;;;;;;;76.75;43.72;;;;;;;;;;10363220;28;20132;-73
2023/01/03 11:54:19;;;;;;;69.78;36.50;;;;;;;;;;10380449;28;20468;-77
2023/01/03 11:59:38;;;;;;;60.15;32.75;;;;;;;;;;10387695;28;20025;-73
2023/01/03 12:04:44;;;;;;;60.58;30.42;;;;;;;;;;10406751;28;20498;-72
2023/01/03 12:09:45;;;;;;;66.60;35.70;;;;;;;;;;10386084;28;20308;-74
2023/01/03 12:14:48;;;;;;;72.40;36.55;;;;;;;;;;10400507;28;20483;-74
2023/01/03 12:19:51;;;;;;;77.25;38.88;;;;;;;;;;10380407;28;20025;-74
2023/01/03 12:24:56;;;;;;;83.47;40.67;;;;;;;;;;10384398;28;20541;-74
2023/01/03 12:29:56;;;;;;;82.60;41.28;;;;;;;;;;10384259;28;20025;-75
2023/01/03 12:34:56;;;;;;;93.90;43.83;;;;;;;;;;10384027;28;20513;-75
2023/01/03 12:40:00;;;;;;;86.18;42.22;;;;;;;;;;10382462;28;20495;-75
2023/01/03 12:45:06;;;;;;;85.57;41.90;;;;;;;;;;10383127;28;20057;-74
2023/01/03 12:50:15;;;;;;;88.18;43.00;;;;;;;;;;10382096;28;20037;-72
2023/01/03 12:55:22;;;;;;;83.68;43.25;;;;;;;;;;10372526;28;20506;-73
2023/01/03 13:00:34;;;;;;;87.90;43.15;;;;;;;;;;10371517;28;20105;-73
2023/01/03 13:05:43;;;;;;;93.60;44.78;;;;;;;;;;10356230;28;20029;-77
2023/01/03 13:10:47;;;;;;;87.40;44.28;;;;;;;;;;10381614;28;20489;-75
2023/01/03 13:15:47;;;;;;;98.50;45.58;;;;;;;;;;10365136;28;20026;-77
2023/01/03 13:20:49;;;;;;;87.32;44.08;;;;;;;;;;10375072;28;20856;-72
2023/01/03 13:26:12;;;;;;;89.20;43.45;;;;;;;;;;10400019;28;20108;-73
2023/01/03 13:31:19;;;;;;;105.38;46.38;;;;;;;;;;10386159;28;20116;-76
2023/01/03 13:36:20;;;;;;;85.05;43.42;;;;;;;;;;10381410;28;20622;-75
2023/01/03 13:41:37;;;;;;;92.43;45.50;;;;;;;;;;10365300;28;20084;-79
2023/01/03 13:46:38;;;;;;;92.68;46.50;;;;;;;;;;10381217;28;20223;-78
2023/01/03 13:51:38;;;;;;;87.10;40.28;;;;;;;;;;10386672;28;20145;-76
2023/01/03 13:56:41;;;;;;;83.07;39.03;;;;;;;;;;10372558;28;20175;-72
2023/01/03 14:01:54;;;;;;;80.63;38.78;;;;;;;;;;10370006;28;20752;-77
2023/01/03 14:07:13;;;;;;;84.88;40.47;;;;;;;;;;10373993;28;20114;-72
2023/01/03 14:12:13;;;;;;;94.32;40.20;;;;;;;;;;10375474;28;20029;-73
2023/01/03 14:17:16;;;;;;;80.57;39.28;;;;;;;;;;10380148;28;20033;-73
2023/01/03 14:22:25;;;;;;;92.43;37.13;;;;;;;;;;10386785;28;20053;-77
2023/01/03 14:27:27;;;;;;;67.60;29.17;;;;;;;;;;10384109;28;20029;-76
2023/01/03 14:32:28;;;;;;;30.58;14.07;;;;;;;;;;10380972;28;20044;-77
2023/01/03 14:37:31;;;;;;;22.80;9.93;;;;;;;;;;10384665;28;20411;-72
2023/01/03 14:42:31;;;;;;;24.13;8.48;;;;;;;;;;10381366;28;20618;-71
2023/01/03 14:47:34;;;;;;;15.27;8.32;;;;;;;;;;10373734;28;20062;-71
2023/01/03 14:52:37;;;;;;;17.17;6.97;;;;;;;;;;10388416;28;20041;-71
2023/01/03 14:57:38;;;;;;;15.20;7.00;;;;;;;;;;10355049;28;20120;-77
2023/01/03 15:02:39;;;;;;;16.20;7.72;;;;;;;;;;10372887;28;20579;-77
2023/01/03 15:07:42;;;;;;;16.38;7.88;;;;;;;;;;10376374;28;20021;-76
2023/01/03 15:12:52;;;;;;;14.10;5.90;;;;;;;;;;10394382;28;20029;-76
2023/01/03 15:17:58;;;;;;;18.15;7.35;;;;;;;;;;10390865;28;20393;-75
2023/01/03 15:22:59;;;;;;;23.67;9.30;;;;;;;;;;10369364;28;20467;-78
2023/01/03 15:28:18;;;;;;;15.65;8.85;;;;;;;;;;10377517;28;20033;-75
2023/01/03 15:33:32;;;;;;;15.10;7.88;;;;;;;;;;10362965;28;20029;-77
2023/01/03 15:38:34;;;;;;;24.08;8.88;;;;;;;;;;10386098;28;20048;-76
2023/01/03 15:43:36;;;;;;;25.02;9.32;;;;;;;;;;10371865;28;20112;-78
2023/01/03 15:48:37;;;;;;;25.45;8.07;;;;;;;;;;10346328;28;20062;-78
2023/01/03 15:53:38;;;;;;;15.10;8.70;;;;;;;;;;10346927;28;20037;-77
2023/01/03 15:58:38;;;;;;;15.43;8.30;;;;;;;;;;10352474;28;20268;-76
2023/01/03 16:03:39;;;;;;;24.00;9.43;;;;;;;;;;10352099;28;20032;-71
2023/01/03 16:08:39;;;;;;;25.63;9.70;;;;;;;;;;10346796;28;20261;-76
2023/01/03 16:13:42;;;;;;;24.17;9.80;;;;;;;;;;10344847;28;20813;-77
2023/01/03 16:18:47;;;;;;;15.45;9.25;;;;;;;;;;10324895;28;20407;-74
2023/01/03 16:23:48;;;;;;;18.20;9.63;;;;;;;;;;10350330;28;20041;-75
2023/01/03 16:28:48;;;;;;;13.68;7.75;;;;;;;;;;10351285;28;20028;-73
2023/01/03 16:33:49;;;;;;;12.23;7.53;;;;;;;;;;10343879;28;20141;-77
2023/01/03 16:38:49;;;;;;;18.35;7.88;;;;;;;;;;10351965;28;20030;-78
2023/01/03 16:43:51;;;;;;;15.65;8.20;;;;;;;;;;10344744;28;20111;-76
2023/01/03 16:48:52;;;;;;;19.50;8.80;;;;;;;;;;10381971;28;20036;-73
2023/01/03 16:53:54;;;;;;;16.30;8.32;;;;;;;;;;10369453;28;20069;-76
2023/01/03 16:58:55;;;;;;;16.10;9.73;;;;;;;;;;10370502;28;20148;-77
2023/01/03 17:03:55;;;;;;;19.05;9.32;;;;;;;;;;10370844;28;20033;-77
2023/01/03 17:08:57;;;;;;;13.75;8.00;;;;;;;;;;10368312;28;20091;-78
2023/01/03 17:13:59;;;;;;;17.40;9.68;;;;;;;;;;10381476;28;20083;-72
2023/01/03 17:18:59;;;;;;;24.83;10.35;;;;;;;;;;10373406;28;20037;-75
2023/01/03 17:24:01;;;;;;;18.45;9.18;;;;;;;;;;10361148;28;20021;-79
2023/01/03 17:29:02;;;;;;;24.80;10.95;;;;;;;;;;10380330;28;20063;-78
2023/01/03 17:34:14;;;;;;;21.83;9.57;;;;;;;;;;10378740;28;20526;-77
2023/01/03 17:39:14;;;;;;;16.80;8.07;;;;;;;;;;10379715;28;20116;-78
2023/01/03 17:44:15;;;;;;;13.37;7.83;;;;;;;;;;10376366;28;20050;-78
2023/01/03 17:49:25;;;;;;;17.20;7.93;;;;;;;;;;10371777;28;20041;-78
2023/01/03 17:54:27;;;;;;;19.73;8.57;;;;;;;;;;10367340;28;20036;-77
2023/01/03 17:59:27;;;;;;;13.90;7.80;;;;;;;;;;10434338;23;20106;-77
2023/01/03 18:04:27;;;;;;;12.32;7.05;;;;;;;;;;10467960;28;20068;-78
2023/01/03 18:09:30;;;;;;;12.98;8.02;;;;;;;;;;10472631;28;20028;-78
2023/01/03 18:14:30;;;;;;;22.80;9.05;;;;;;;;;;10465682;28;20547;-77
2023/01/03 18:19:30;;;;;;;15.90;7.53;;;;;;;;;;10470921;28;20012;-77
2023/01/03 18:24:30;;;;;;;14.75;8.18;;;;;;;;;;10467388;28;20058;-77
2023/01/03 18:29:31;;;;;;;17.90;8.80;;;;;;;;;;10441207;28;20116;-78
2023/01/03 18:34:31;;;;;;;15.05;7.30;;;;;;;;;;10438188;28;20025;-77
2023/01/03 18:39:31;;;;;;;13.07;8.13;;;;;;;;;;10439133;28;20036;-76
2023/01/03 18:44:32;;;;;;;15.93;7.33;;;;;;;;;;10451597;28;20094;-76
2023/01/03 18:49:32;;;;;;;14.73;7.82;;;;;;;;;;10438348;28;20394;-76
2023/01/03 18:54:36;;;;;;;14.18;8.57;;;;;;;;;;10452063;28;20017;-76
2023/01/03 18:59:36;;;;;;;17.98;7.82;;;;;;;;;;10438465;28;20498;-76
2023/01/03 19:04:36;;;;;;;11.88;7.07;;;;;;;;;;10435157;28;20025;-73
2023/01/03 19:09:37;;;;;;;14.13;7.40;;;;;;;;;;10446539;28;20067;-76
2023/01/03 19:14:37;;;;;;;17.97;8.93;;;;;;;;;;10447295;28;20021;-76
2023/01/03 19:19:37;;;;;;;15.85;8.07;;;;;;;;;;10436554;28;20953;-72
2023/01/03 19:24:38;;;;;;;15.13;8.35;;;;;;;;;;10436306;28;20025;-76
2023/01/03 19:29:38;;;;;;;17.35;8.05;;;;;;;;;;10439746;28;20131;-77
2023/01/03 19:34:38;;;;;;;17.80;8.13;;;;;;;;;;10458738;28;20036;-76
2023/01/03 19:39:39;;;;;;;11.85;7.72;;;;;;;;;;10434722;28;20750;-77
2023/01/03 19:44:39;;;;;;;14.50;7.53;;;;;;;;;;10456517;28;20372;-73
2023/01/03 19:49:40;;;;;;;11.35;7.00;;;;;;;;;;10449264;28;20025;-76
2023/01/03 19:54:40;;;;;;;13.13;6.63;;;;;;;;;;10429580;28;20013;-76
2023/01/03 19:59:41;;;;;;;10.10;6.27;;;;;;;;;;10434215;28;20052;-72
2023/01/03 20:04:41;;;;;;;8.70;5.40;;;;;;;;;;10433489;28;20843;-72
2023/01/03 20:09:41;;;;;;;10.70;6.50;;;;;;;;;;10433283;28;20028;-75
2023/01/03 20:14:45;;;;;;;13.15;6.65;;;;;;;;;;10435265;28;20098;-73
2023/01/03 20:19:46;;;;;;;9.55;5.88;;;;;;;;;;10440852;28;20160;-72
2023/01/03 20:24:46;;;;;;;12.50;6.75;;;;;;;;;;10450031;28;20054;-76
2023/01/03 20:29:47;;;;;;;14.93;6.07;;;;;;;;;;10430640;28;20035;-76
2023/01/03 20:34:47;;;;;;;11.50;6.50;;;;;;;;;;10446695;28;20027;-76
2023/01/03 20:39:47;;;;;;;12.65;6.13;;;;;;;;;;10433754;28;20820;-77
2023/01/03 20:44:47;;;;;;;10.33;6.37;;;;;;;;;;10446869;28;20036;-76
2023/01/03 20:49:48;;;;;;;10.75;6.57;;;;;;;;;;10432460;28;20042;-72
2023/01/03 20:54:48;;;;;;;10.55;6.75;;;;;;;;;;10430324;28;20036;-72
2023/01/03 20:59:49;;;;;;;11.10;6.60;;;;;;;;;;10436989;28;20065;-73
2023/01/03 21:04:49;;;;;;;14.23;8.50;;;;;;;;;;10430502;28;20388;-75
2023/01/03 21:09:49;;;;;;;14.57;7.82;;;;;;;;;;10448413;28;20287;-77
2023/01/03 21:14:50;;;;;;;13.98;6.78;;;;;;;;;;10428895;28;20458;-77
2023/01/03 21:19:50;;;;;;;14.02;7.55;;;;;;;;;;10427808;28;20454;-77
2023/01/03 21:24:50;;;;;;;11.10;7.07;;;;;;;;;;10434922;28;20028;-76
2023/01/03 21:29:50;;;;;;;15.57;7.65;;;;;;;;;;10425343;28;20028;-76
2023/01/03 21:34:51;;;;;;;14.23;8.60;;;;;;;;;;10412138;28;20181;-77
2023/01/03 21:39:51;;;;;;;14.57;8.95;;;;;;;;;;10418427;28;20441;-76
2023/01/03 21:44:51;;;;;;;15.80;9.20;;;;;;;;;;10438513;28;20028;-76
2023/01/03 21:49:51;;;;;;;17.05;8.30;;;;;;;;;;10419642;28;20029;-76
2023/01/03 21:54:52;;;;;;;15.68;9.27;;;;;;;;;;10438409;28;20120;-77
2023/01/03 21:59:52;;;;;;;14.73;7.80;;;;;;;;;;10420734;28;20529;-76
2023/01/03 22:04:52;;;;;;;16.92;9.85;;;;;;;;;;10420966;28;20025;-77
2023/01/03 22:15:12;;;;;;;15.50;10.43;;;;;;;;;;10442188;28;20025;-76
2023/01/03 22:20:14;;;;;;;21.15;12.00;;;;;;;;;;10415052;28;20017;-77
2023/01/03 22:25:16;;;;;;;18.42;11.50;;;;;;;;;;10427472;28;20024;-76
2023/01/03 22:30:17;;;;;;;19.38;11.55;;;;;;;;;;10426461;28;20495;-76
2023/01/03 22:35:18;;;;;;;19.70;11.90;;;;;;;;;;10426576;28;20028;-76
2023/01/03 22:40:21;;;;;;;18.52;11.05;;;;;;;;;;10429052;28;20387;-72
2023/01/03 22:45:22;;;;;;;23.67;12.52;;;;;;;;;;10427686;28;20056;-71
2023/01/03 22:50:22;;;;;;;21.73;11.87;;;;;;;;;;10427358;28;20036;-76
2023/01/03 22:55:22;;;;;;;22.47;11.77;;;;;;;;;;10428597;28;20029;-76
2023/01/03 23:00:23;;;;;;;20.90;11.73;;;;;;;;;;10424500;28;20041;-77
2023/01/03 23:05:23;;;;;;;18.27;10.60;;;;;;;;;;10428636;28;20848;-75
2023/01/03 23:10:23;;;;;;;21.23;11.55;;;;;;;;;;10429626;28;20073;-77
2023/01/03 23:15:25;;;;;;;18.02;10.32;;;;;;;;;;10426981;28;20025;-73
2023/01/03 23:20:27;;;;;;;21.92;11.38;;;;;;;;;;10426856;28;20029;-76
2023/01/03 23:25:28;;;;;;;19.52;11.10;;;;;;;;;;10426128;28;20083;-71
2023/01/03 23:30:28;;;;;;;22.10;12.15;;;;;;;;;;10414095;28;20120;-76
2023/01/03 23:35:29;;;;;;;20.98;11.20;;;;;;;;;;10439262;28;20486;-72
2023/01/03 23:40:29;;;;;;;23.17;11.88;;;;;;;;;;10442955;28;20071;-76
2023/01/03 23:45:29;;;;;;;19.13;11.88;;;;;;;;;;10425673;28;20475;-74
2023/01/03 23:50:30;;;;;;;18.90;11.40;;;;;;;;;;10424813;28;20509;-77
2023/01/03 23:55:30;;;;;;;18.77;10.65;;;;;;;;;;10423725;28;20444;-73
